createdAt,value
2022-10-13T00:01:25.086Z,99.90
2022-10-13T00:03:52.954Z,99.90
2022-10-13T00:11:19.501Z,99.90
2022-10-13T00:13:48.107Z,99.90
2022-10-13T00:16:23.400Z,99.90
2022-10-13T00:18:51.823Z,99.90
2022-10-13T00:21:24.334Z,99.90
2022-10-13T00:23:53.634Z,99.90
2022-10-13T00:26:23.999Z,99.90
2022-10-13T00:28:52.875Z,99.90
2022-10-13T00:31:31.009Z,99.90
2022-10-13T00:34:01.358Z,99.90
2022-10-13T00:36:29.857Z,99.90
2022-10-13T00:38:57.335Z,99.90
2022-10-13T00:41:24.665Z,99.90
2022-10-13T00:44:07.301Z,99.90
2022-10-13T00:46:37.909Z,99.90
2022-10-13T00:49:14.613Z,99.90
2022-10-13T00:51:49.011Z,99.90
2022-10-13T00:54:25.015Z,99.90
2022-10-13T00:56:54.317Z,99.90
2022-10-13T00:59:28.458Z,99.90
2022-10-13T01:01:59.394Z,99.90
2022-10-13T01:04:42.665Z,99.90
2022-10-13T01:07:11.017Z,99.90
2022-10-13T01:09:38.219Z,99.90
2022-10-13T01:12:23.555Z,99.90
2022-10-13T01:14:53.584Z,99.90
2022-10-13T01:17:48.456Z,99.90
2022-10-13T01:20:36.638Z,99.90
2022-10-13T01:23:47.057Z,99.90
2022-10-13T01:26:50.950Z,99.90
2022-10-13T01:33:25.089Z,99.90
2022-10-13T01:36:07.587Z,99.90
2022-10-13T01:39:36.266Z,99.90
2022-10-13T01:42:17.775Z,99.90
2022-10-13T01:44:55.049Z,99.90
2022-10-13T01:47:25.571Z,99.90
2022-10-13T01:49:55.918Z,99.90
2022-10-13T01:52:27.861Z,99.90
2022-10-13T01:54:55.216Z,99.90
2022-10-13T01:57:35.458Z,99.90
2022-10-13T02:00:14.517Z,99.90
2022-10-13T02:03:20.552Z,99.90
2022-10-13T02:06:20.975Z,99.90
2022-10-13T02:09:11.084Z,99.90
2022-10-13T02:11:46.995Z,99.90
2022-10-13T02:14:29.963Z,99.90
2022-10-13T02:17:02.537Z,99.90
2022-10-13T02:19:34.647Z,99.90
2022-10-13T02:22:07.120Z,99.90
2022-10-13T02:24:53.327Z,99.90
2022-10-13T02:27:21.945Z,99.90
2022-10-13T02:29:57.861Z,99.90
2022-10-13T02:32:25.491Z,99.90
2022-10-13T02:34:52.722Z,99.90
2022-10-13T02:37:19.957Z,99.90
2022-10-13T02:39:47.123Z,99.90
2022-10-13T02:42:51.583Z,99.90
2022-10-13T02:48:04.179Z,99.90
2022-10-13T02:50:31.422Z,99.90
2022-10-13T02:52:58.684Z,99.90
2022-10-13T02:55:26.060Z,99.90
2022-10-13T02:57:53.191Z,99.90
2022-10-13T03:00:21.046Z,99.90
2022-10-13T03:02:48.310Z,99.90
2022-10-13T03:05:15.546Z,99.90
2022-10-13T03:07:42.744Z,99.90
2022-10-13T03:10:10.266Z,99.90
2022-10-13T03:12:37.487Z,99.90
2022-10-13T03:15:05.224Z,99.90
2022-10-13T03:17:32.463Z,99.90
2022-10-13T03:19:59.636Z,99.90
2022-10-13T03:22:26.882Z,99.90
2022-10-13T03:24:54.115Z,99.90
2022-10-13T03:27:21.309Z,99.90
2022-10-13T03:29:48.758Z,99.90
2022-10-13T03:32:16.087Z,99.90
2022-10-13T03:34:43.291Z,99.90
2022-10-13T03:37:10.441Z,99.90
2022-10-13T03:39:37.744Z,99.90
2022-10-13T03:42:05.004Z,99.90
2022-10-13T03:44:32.291Z,99.90
2022-10-13T03:46:59.652Z,99.90
2022-10-13T03:49:27.073Z,99.90
2022-10-13T03:51:54.290Z,99.90
2022-10-13T03:54:21.501Z,99.90
2022-10-13T03:56:48.683Z,99.90
2022-10-13T03:59:15.912Z,99.90
2022-10-13T04:01:43.277Z,99.90
2022-10-13T04:04:12.140Z,99.90
2022-10-13T04:06:39.409Z,99.90
2022-10-13T04:09:06.719Z,99.90
2022-10-13T04:11:34.214Z,99.90
2022-10-13T04:14:01.480Z,99.90
2022-10-13T04:16:31.748Z,99.90
2022-10-13T04:19:03.249Z,99.90
2022-10-13T04:21:34.290Z,99.90
2022-10-13T04:24:03.502Z,99.90
2022-10-13T04:26:34.579Z,99.90
2022-10-13T04:29:05.501Z,99.90
2022-10-13T04:31:33.321Z,99.90
2022-10-13T04:34:00.601Z,99.90
2022-10-13T04:36:28.876Z,99.90
2022-10-13T04:38:56.507Z,99.90
2022-10-13T04:41:24.237Z,99.90
2022-10-13T04:43:52.667Z,99.90
2022-10-13T04:46:25.045Z,99.90
2022-10-13T04:48:53.483Z,99.90
2022-10-13T04:51:24.341Z,99.90
2022-10-13T04:53:59.693Z,99.90
2022-10-13T04:56:28.480Z,99.90
2022-10-13T04:58:55.743Z,99.90
2022-10-13T05:01:25.860Z,99.90
2022-10-13T05:04:00.500Z,99.90
2022-10-13T05:06:33.932Z,99.90
2022-10-13T05:09:02.333Z,99.90
2022-10-13T05:11:31.006Z,99.90
2022-10-13T05:13:59.309Z,99.90
2022-10-13T05:16:26.979Z,99.90
2022-10-13T05:18:55.367Z,99.90
2022-10-13T05:21:27.380Z,99.90
2022-10-13T05:23:57.393Z,99.90
2022-10-13T05:26:29.600Z,99.90
2022-10-13T05:29:02.145Z,99.90
2022-10-13T05:31:32.064Z,99.90
2022-10-13T05:34:00.348Z,99.90
2022-10-13T05:36:30.565Z,99.90
2022-10-13T05:39:02.152Z,99.90
2022-10-13T05:41:30.716Z,99.90
2022-10-13T05:44:08.239Z,99.90
2022-10-13T05:46:36.472Z,99.90
2022-10-13T05:49:04.500Z,99.90
2022-10-13T05:51:41.366Z,99.90
2022-10-13T05:54:21.377Z,99.90
2022-10-13T05:56:57.789Z,99.90
2022-10-13T05:59:28.628Z,99.90
2022-10-13T06:01:56.413Z,99.90
2022-10-13T06:04:46.808Z,99.90
2022-10-13T06:07:14.096Z,99.90
2022-10-13T06:09:42.826Z,99.90
2022-10-13T06:12:10.726Z,99.90
2022-10-13T06:14:38.101Z,99.90
2022-10-13T06:17:05.320Z,99.90
2022-10-13T06:19:32.566Z,99.90
2022-10-13T06:22:03.436Z,99.90
2022-10-13T06:24:31.529Z,99.90
2022-10-13T06:26:58.850Z,99.90
2022-10-13T06:29:26.083Z,99.90
2022-10-13T06:31:53.340Z,99.90
2022-10-13T06:34:20.518Z,99.90
2022-10-13T06:36:47.665Z,99.90
2022-10-13T06:39:15.542Z,99.90
2022-10-13T06:41:42.750Z,99.90
2022-10-13T06:44:10.034Z,99.90
2022-10-13T06:46:37.250Z,99.90
2022-10-13T06:49:04.495Z,99.90
2022-10-13T06:51:32.146Z,99.90
2022-10-13T06:53:59.304Z,99.90
2022-10-13T06:56:26.486Z,99.90
2022-10-13T06:58:53.730Z,99.90
2022-10-13T07:01:21.262Z,99.90
2022-10-13T07:03:52.257Z,99.90
2022-10-13T07:06:19.905Z,99.90
2022-10-13T07:08:47.186Z,99.90
2022-10-13T07:11:16.701Z,99.90
2022-10-13T07:13:46.709Z,99.90
2022-10-13T07:16:16.069Z,99.90
2022-10-13T07:18:43.340Z,99.90
2022-10-13T07:21:10.676Z,99.90
2022-10-13T07:23:37.813Z,99.90
2022-10-13T07:26:13.277Z,99.90
2022-10-13T07:28:41.713Z,99.90
2022-10-13T07:31:16.670Z,99.90
2022-10-13T07:33:47.750Z,99.90
2022-10-13T07:36:16.046Z,99.90
2022-10-13T07:38:43.628Z,99.90
2022-10-13T07:41:12.843Z,99.90
2022-10-13T07:43:40.349Z,99.90
2022-10-13T07:46:12.043Z,99.90
2022-10-13T07:48:39.754Z,99.90
2022-10-13T07:51:09.977Z,99.90
2022-10-13T07:53:38.253Z,99.90
2022-10-13T07:56:10.484Z,99.90
2022-10-13T07:58:41.332Z,99.90
2022-10-13T08:01:09.650Z,99.90
2022-10-13T08:06:06.300Z,99.90
2022-10-13T08:08:34.265Z,99.90
2022-10-13T08:11:09.501Z,99.90
2022-10-13T08:13:37.453Z,99.90
2022-10-13T08:16:05.030Z,99.90
2022-10-13T08:18:32.369Z,99.90
2022-10-13T08:21:33.029Z,99.90
2022-10-13T08:23:51.389Z,99.90
2022-10-13T08:26:26.221Z,99.90
2022-10-13T08:31:42.490Z,99.90
2022-10-13T08:34:12.117Z,99.90
2022-10-13T08:36:40.308Z,99.90
2022-10-13T08:39:07.818Z,99.90
2022-10-13T08:41:43.993Z,99.90
2022-10-13T08:47:28.146Z,99.90
2022-10-13T08:50:00.856Z,99.90
2022-10-13T08:52:55.656Z,99.90
2022-10-13T08:55:45.318Z,99.90
2022-10-13T08:58:28.547Z,99.90
2022-10-13T09:01:10.624Z,99.90
2022-10-13T09:03:56.819Z,99.90
2022-10-13T09:06:27.072Z,99.90
2022-10-13T09:09:01.489Z,99.90
2022-10-13T09:11:41.862Z,99.90
2022-10-13T09:14:20.851Z,99.90
2022-10-13T09:16:49.892Z,99.90
2022-10-13T09:19:34.186Z,99.90
2022-10-13T09:22:39.441Z,99.90
2022-10-13T09:25:09.556Z,99.90
2022-10-13T09:27:52.932Z,99.90
2022-10-13T09:30:42.274Z,99.90
2022-10-13T09:33:09.444Z,99.90
2022-10-13T09:35:38.670Z,99.90
2022-10-13T09:38:11.550Z,99.90
2022-10-13T09:40:39.060Z,99.90
2022-10-13T09:43:31.144Z,99.90
2022-10-13T09:46:00.987Z,99.90
2022-10-13T09:48:36.720Z,99.90
2022-10-13T09:51:04.217Z,99.90
2022-10-13T09:53:41.247Z,99.90
2022-10-13T09:56:42.421Z,99.90
2022-10-13T09:59:35.871Z,99.90
2022-10-13T10:02:25.126Z,99.90
2022-10-13T10:04:59.554Z,99.90
2022-10-13T10:07:32.642Z,99.90
2022-10-13T10:10:26.961Z,99.90
2022-10-13T10:12:54.918Z,99.90
2022-10-13T10:15:38.892Z,99.90
2022-10-13T10:18:19.785Z,99.90
2022-10-13T10:21:23.082Z,99.90
2022-10-13T10:24:05.428Z,99.90
2022-10-13T10:26:43.810Z,99.90
2022-10-13T10:29:22.900Z,99.90
2022-10-13T10:32:31.156Z,99.90
2022-10-13T11:02:10.358Z,99.90
2022-10-13T11:04:40.301Z,99.90
2022-10-13T11:07:31.903Z,99.90
2022-10-13T11:10:22.019Z,99.90
2022-10-13T11:12:52.420Z,99.90
2022-10-13T11:15:28.848Z,98.50
2022-10-13T11:17:56.269Z,93.70
2022-10-13T11:20:23.509Z,92.70
2022-10-13T11:22:59.865Z,91.90
2022-10-13T11:25:47.834Z,88.80
2022-10-13T11:28:21.372Z,84.40
2022-10-13T11:31:14.284Z,80.10
2022-10-13T11:33:41.706Z,77.10
2022-10-13T11:36:58.544Z,83.20
2022-10-13T11:39:25.855Z,75.10
2022-10-13T11:42:11.684Z,67.80
2022-10-13T11:45:11.462Z,65.50
2022-10-13T11:48:21.548Z,75.70
2022-10-13T11:51:41.273Z,80.20
2022-10-13T11:54:46.753Z,77.80
2022-10-13T11:57:27.205Z,77.10
2022-10-13T11:59:56.847Z,78.10
2022-10-13T12:02:27.585Z,80.40
2022-10-13T12:05:25.165Z,82.10
2022-10-13T12:07:58.880Z,83.10
2022-10-13T12:10:36.543Z,83.00
2022-10-13T12:13:05.395Z,83.40
2022-10-13T12:15:41.490Z,83.80
2022-10-13T12:18:40.719Z,84.50
2022-10-13T12:21:22.870Z,83.80
2022-10-13T12:24:04.990Z,81.80
2022-10-13T12:26:32.224Z,81.60
2022-10-13T12:29:12.570Z,82.90
2022-10-13T12:31:47.374Z,83.20
2022-10-13T12:34:29.520Z,80.70
2022-10-13T12:37:24.840Z,80.20
2022-10-13T12:39:54.671Z,82.00
2022-10-13T12:42:32.157Z,81.80
2022-10-13T12:45:02.005Z,81.60
2022-10-13T12:47:54.505Z,81.90
2022-10-13T12:50:27.971Z,82.10
2022-10-13T12:53:06.369Z,82.00
2022-10-13T12:55:35.777Z,82.90
2022-10-13T12:58:06.246Z,85.00
2022-10-13T13:00:33.419Z,87.10
2022-10-13T13:03:05.508Z,87.60
2022-10-13T13:05:42.680Z,88.60
2022-10-13T13:08:31.110Z,90.10
2022-10-13T13:11:06.028Z,90.40
2022-10-13T13:13:33.830Z,90.60
2022-10-13T13:16:22.095Z,91.60
2022-10-13T13:18:50.967Z,91.20
2022-10-13T13:21:21.134Z,92.50
2022-10-13T13:23:52.885Z,93.40
2022-10-13T13:26:27.201Z,93.00
2022-10-13T13:28:56.583Z,93.90
2022-10-13T13:31:26.158Z,99.20
2022-10-13T13:33:53.590Z,98.20
2022-10-13T13:36:26.172Z,99.20
2022-10-13T13:38:54.881Z,96.50
2022-10-13T13:41:23.341Z,94.00
2022-10-13T13:43:50.531Z,94.30
2022-10-13T13:46:24.815Z,95.30
2022-10-13T13:48:52.581Z,94.30
2022-10-13T13:51:20.152Z,92.80
2022-10-13T13:53:47.311Z,91.60
2022-10-13T13:56:18.781Z,97.40
2022-10-13T13:58:46.634Z,92.10
2022-10-13T14:01:14.879Z,91.10
2022-10-13T14:03:42.013Z,91.00
2022-10-13T14:06:09.376Z,90.90
2022-10-13T14:08:37.083Z,90.30
2022-10-13T14:11:07.957Z,90.60
2022-10-13T14:13:35.531Z,89.60
2022-10-13T14:16:03.737Z,89.40
2022-10-13T14:18:31.659Z,86.80
2022-10-13T14:20:59.064Z,89.60
2022-10-13T14:23:26.137Z,95.00
2022-10-13T14:25:53.425Z,93.90
2022-10-13T14:28:20.755Z,93.30
2022-10-13T14:30:48.013Z,92.40
2022-10-13T14:33:15.214Z,87.90
2022-10-13T14:38:10.077Z,99.90
2022-10-13T14:48:05.041Z,92.50
2022-10-13T14:50:32.312Z,94.60
2022-10-13T14:52:59.536Z,99.40
2022-10-13T14:55:26.753Z,99.80
2022-10-13T14:57:54.004Z,99.30
2022-10-13T15:00:21.279Z,99.90
2022-10-13T15:02:48.415Z,99.90
2022-10-13T15:07:43.379Z,99.90
2022-10-13T15:10:10.734Z,99.90
2022-10-13T15:12:38.027Z,99.90
2022-10-13T15:15:05.745Z,99.90
2022-10-13T15:17:33.195Z,99.90
2022-10-13T15:27:24.371Z,91.00
2022-10-13T15:29:51.690Z,91.60
2022-10-13T15:32:19.624Z,92.00
2022-10-13T15:34:47.114Z,90.90
2022-10-13T15:37:14.375Z,90.70
2022-10-13T15:39:41.722Z,91.60
2022-10-13T15:42:11.431Z,92.50
2022-10-13T15:47:25.961Z,94.20
2022-10-13T15:49:53.293Z,94.60
2022-10-13T15:52:20.703Z,94.50
2022-10-13T15:54:48.031Z,95.60
2022-10-13T15:57:15.269Z,96.10
2022-10-13T15:59:42.384Z,96.10
2022-10-13T16:02:10.799Z,96.30
2022-10-13T16:04:37.992Z,95.80
2022-10-13T16:07:05.324Z,96.50
2022-10-13T16:09:32.473Z,96.50
2022-10-13T16:11:59.709Z,96.40
2022-10-13T16:14:26.867Z,96.60
2022-10-13T16:16:54.364Z,96.30
2022-10-13T16:19:21.767Z,96.90
2022-10-13T16:21:48.955Z,96.80
2022-10-13T16:24:16.372Z,97.10
2022-10-13T16:26:43.535Z,97.10
2022-10-13T16:29:10.761Z,97.10
2022-10-13T16:31:38.160Z,97.80
2022-10-13T16:34:05.487Z,98.10
2022-10-13T16:36:32.691Z,98.20
2022-10-13T16:38:59.960Z,98.40
2022-10-13T16:41:27.210Z,98.40
2022-10-13T16:43:56.993Z,99.10
2022-10-13T16:46:24.246Z,99.20
2022-10-13T16:48:51.412Z,99.60
2022-10-13T16:51:22.632Z,99.90
2022-10-13T16:53:52.818Z,99.90
2022-10-13T16:56:21.735Z,99.90
2022-10-13T16:58:55.057Z,99.90
2022-10-13T17:01:23.446Z,99.90
2022-10-13T17:03:52.338Z,99.90
2022-10-13T17:06:23.435Z,99.90
2022-10-13T17:08:50.851Z,99.90
2022-10-13T17:11:27.922Z,99.90
2022-10-13T17:13:58.550Z,99.90
2022-10-13T17:16:26.863Z,99.90
2022-10-13T17:18:55.876Z,99.90
2022-10-13T17:21:29.472Z,99.90
2022-10-13T17:23:58.181Z,99.90
2022-10-13T17:26:25.736Z,99.90
2022-10-13T17:28:53.862Z,99.90
2022-10-13T17:31:23.992Z,99.90
2022-10-13T17:33:52.808Z,99.90
2022-10-13T17:36:31.330Z,99.90
2022-10-13T17:39:06.761Z,99.90
2022-10-13T17:41:34.475Z,99.90
2022-10-13T17:44:01.882Z,99.90
2022-10-13T17:46:37.305Z,99.90
2022-10-13T17:49:10.221Z,99.90
2022-10-13T17:51:37.783Z,99.90
2022-10-13T17:54:05.239Z,99.90
2022-10-13T17:56:33.251Z,99.90
2022-10-13T17:59:01.911Z,99.90
2022-10-13T18:01:33.661Z,99.90
2022-10-13T18:04:05.499Z,99.90
2022-10-13T18:06:38.783Z,99.90
2022-10-13T18:09:14.741Z,99.90
2022-10-13T18:11:49.847Z,99.90
2022-10-13T18:14:23.403Z,99.90
2022-10-13T18:16:57.374Z,99.90
2022-10-13T18:19:24.506Z,99.90
2022-10-13T18:21:51.638Z,99.90
2022-10-13T18:24:19.617Z,99.90
2022-10-13T18:26:47.142Z,99.90
2022-10-13T18:29:14.675Z,99.90
2022-10-13T18:31:42.707Z,99.90
2022-10-13T18:34:15.266Z,99.90
2022-10-13T18:36:48.971Z,99.90
2022-10-13T18:39:25.469Z,99.90
2022-10-13T18:41:54.436Z,99.90
2022-10-13T18:44:23.670Z,99.90
2022-10-13T18:46:53.210Z,99.90
2022-10-13T18:49:20.744Z,99.90
2022-10-13T18:51:51.309Z,99.90
2022-10-13T18:54:18.562Z,99.90
2022-10-13T18:56:45.759Z,99.90
2022-10-13T18:59:13.050Z,99.90
2022-10-13T19:01:40.307Z,99.90
2022-10-13T19:04:08.256Z,99.90
2022-10-13T19:06:35.484Z,99.90
2022-10-13T19:09:10.291Z,99.90
2022-10-13T19:11:38.465Z,99.90
2022-10-13T19:14:08.235Z,99.90
2022-10-13T19:16:39.406Z,99.90
2022-10-13T19:19:07.173Z,99.90
2022-10-13T19:21:34.369Z,99.90
2022-10-13T19:24:01.891Z,99.90
2022-10-13T19:26:33.030Z,99.90
2022-10-13T19:29:09.084Z,99.90
2022-10-13T19:31:39.477Z,99.90
2022-10-13T19:34:07.563Z,99.90
2022-10-13T19:36:42.473Z,99.90
2022-10-13T19:39:13.357Z,99.90
2022-10-13T19:41:40.659Z,99.90
2022-10-13T19:44:07.966Z,99.90
2022-10-13T19:46:36.857Z,99.90
2022-10-13T19:49:05.234Z,99.90
2022-10-13T19:51:33.149Z,99.90
2022-10-13T19:54:00.886Z,99.90
2022-10-13T19:56:31.116Z,99.90
2022-10-13T19:58:59.463Z,99.90
2022-10-13T20:01:26.968Z,99.90
2022-10-13T20:03:54.616Z,99.90
2022-10-13T20:06:23.146Z,99.90
2022-10-13T20:08:50.398Z,99.90
2022-10-13T20:11:23.924Z,99.90
2022-10-13T20:13:52.873Z,99.90
2022-10-13T20:16:25.018Z,99.90
2022-10-13T20:18:55.998Z,99.90
2022-10-13T20:21:24.741Z,99.90
2022-10-13T20:23:53.121Z,99.90
2022-10-13T20:26:21.060Z,99.90
2022-10-13T20:28:50.257Z,99.90
2022-10-13T20:31:20.605Z,99.90
2022-10-13T20:33:48.737Z,99.90
2022-10-13T20:36:19.895Z,99.90
2022-10-13T20:38:48.670Z,99.90
2022-10-13T20:41:20.098Z,99.90
2022-10-13T20:43:49.232Z,99.90
2022-10-13T20:46:18.822Z,99.90
2022-10-13T20:51:34.087Z,99.90
2022-10-13T20:54:01.340Z,99.90
2022-10-13T20:56:28.459Z,99.90
2022-10-13T20:58:55.664Z,99.90
2022-10-13T21:01:23.233Z,99.90
2022-10-13T21:03:54.879Z,99.90
2022-10-13T21:06:24.453Z,99.90
2022-10-13T21:08:52.833Z,99.90
2022-10-13T21:11:23.033Z,99.90
2022-10-13T21:13:51.998Z,99.90
2022-10-13T21:16:25.012Z,99.90
2022-10-13T21:18:52.469Z,99.90
2022-10-13T21:21:30.107Z,99.90
2022-10-13T21:24:05.410Z,99.90
2022-10-13T21:26:33.070Z,99.90
2022-10-13T21:29:01.675Z,99.90
2022-10-13T21:31:29.613Z,99.90
2022-10-13T21:33:57.022Z,99.90
2022-10-13T21:36:31.423Z,99.90
2022-10-13T21:39:05.117Z,99.90
2022-10-13T21:41:32.479Z,99.90
2022-10-13T21:43:59.871Z,99.90
2022-10-13T21:46:33.104Z,99.90
2022-10-13T21:49:04.310Z,99.90
2022-10-13T21:51:38.705Z,99.90
2022-10-13T21:54:10.054Z,99.90
2022-10-13T21:56:39.727Z,99.90
2022-10-13T21:59:08.123Z,99.90
2022-10-13T22:01:35.743Z,99.90
2022-10-13T22:04:03.333Z,99.90
2022-10-13T22:06:32.912Z,99.90
2022-10-13T22:09:03.554Z,99.90
2022-10-13T22:11:34.860Z,99.90
2022-10-13T22:14:02.341Z,99.90
2022-10-13T22:16:43.470Z,99.90
2022-10-13T22:19:11.003Z,99.90
2022-10-13T22:21:46.371Z,99.90
2022-10-13T22:24:21.907Z,99.90
2022-10-13T22:26:50.869Z,99.90
2022-10-13T22:29:21.835Z,99.90
2022-10-13T22:31:54.593Z,99.90
2022-10-13T22:34:22.231Z,99.90
2022-10-13T22:36:49.557Z,99.90
2022-10-13T22:39:16.782Z,99.90
2022-10-13T22:41:44.316Z,99.90
2022-10-13T22:44:12.442Z,99.90
2022-10-13T22:46:40.759Z,99.90
2022-10-13T22:49:09.069Z,99.90
2022-10-13T22:51:36.965Z,99.90
2022-10-13T22:54:04.955Z,99.90
2022-10-13T22:56:34.694Z,99.90
2022-10-13T22:59:08.014Z,99.90
2022-10-13T23:01:36.084Z,99.90
2022-10-13T23:04:03.806Z,99.90
2022-10-13T23:06:34.178Z,99.90
2022-10-13T23:09:05.399Z,99.90
2022-10-13T23:11:33.776Z,99.90
2022-10-13T23:14:02.186Z,99.90
2022-10-13T23:16:30.634Z,99.90
2022-10-13T23:18:57.977Z,99.90
2022-10-13T23:21:28.857Z,99.90
2022-10-13T23:24:03.019Z,99.90
2022-10-13T23:26:33.436Z,99.90
2022-10-13T23:29:00.912Z,99.90
2022-10-13T23:31:29.337Z,99.90
2022-10-13T23:33:57.405Z,99.90
2022-10-13T23:36:29.078Z,99.90
2022-10-13T23:39:02.735Z,99.90
2022-10-13T23:41:31.223Z,99.90
2022-10-13T23:43:58.837Z,99.90
2022-10-13T23:46:26.311Z,99.90
2022-10-13T23:48:53.572Z,99.90
2022-10-13T23:51:24.310Z,99.90
2022-10-13T23:53:52.480Z,99.90
2022-10-13T23:56:20.600Z,99.90
2022-10-13T23:58:48.385Z,99.90
